Weather at Jundah Airport

Public forecast

Using degrees Celsius for public forecast. Weather courtesy of forecast.io.

Closest aviation weather report (METAR) to Jundah Airport

Closest report is Longreach Airport, 107.8 nm (199.7 km) NE. Retrieved 2021/06/21 09:00 UTC (42 minutes ago):

YLRE 210900Z AUTO 13006KT 9999 // NCD 16/M03 Q1020

Closest aviation forecast (TAF) to Jundah Airport

Closest forecast is Rockhampton Airport, 415.7 nm (770.0 km) E. Retrieved 2021/06/21 06:36 UTC (3 hours ago):

TAF YBRK 210512Z 2106/2206 08007KT 9999 SCT050 FM211000 13005KT 9999 FEW045 FM212330 11012KT 9999 FEW045